createdAt,value
2023-01-17T00:00:51.129Z,46.55
2023-01-17T00:03:20.322Z,46.62
2023-01-17T00:06:05.461Z,46.24
2023-01-17T00:08:50.992Z,46.27
2023-01-17T00:11:18.940Z,45.96
2023-01-17T00:13:46.802Z,45.88
2023-01-17T00:16:14.695Z,45.78
2023-01-17T00:19:04.597Z,45.42
2023-01-17T00:21:50.086Z,45.02
2023-01-17T00:24:35.419Z,44.91
2023-01-17T00:27:14.144Z,44.78
2023-01-17T00:29:40.941Z,44.94
2023-01-17T00:32:07.696Z,44.55
2023-01-17T00:34:35.781Z,44.10
2023-01-17T00:37:02.487Z,43.91
2023-01-17T00:39:29.226Z,43.71
2023-01-17T00:41:55.951Z,43.64
2023-01-17T00:44:40.980Z,43.61
2023-01-17T00:47:26.489Z,43.65
2023-01-17T00:50:12.998Z,43.59
2023-01-17T00:52:58.316Z,43.68
2023-01-17T00:55:43.761Z,43.50
2023-01-17T00:58:29.183Z,43.73
2023-01-17T01:01:14.815Z,43.71
2023-01-17T01:04:00.087Z,43.52
2023-01-17T01:06:46.837Z,43.64
2023-01-17T01:09:32.391Z,43.60
2023-01-17T01:12:17.790Z,43.76
2023-01-17T01:15:03.140Z,43.87
2023-01-17T01:17:48.626Z,43.98
2023-01-17T01:20:34.062Z,43.90
2023-01-17T01:23:23.865Z,44.01
2023-01-17T01:26:09.011Z,43.88
2023-01-17T01:28:54.313Z,43.97
2023-01-17T01:31:39.721Z,43.98
2023-01-17T01:34:07.679Z,44.01
2023-01-17T01:36:35.572Z,44.04
2023-01-17T01:39:04.987Z,44.09
2023-01-17T01:41:32.865Z,44.26
2023-01-17T01:44:00.723Z,43.94
2023-01-17T01:46:31.110Z,43.97
2023-01-17T01:49:00.131Z,44.06
2023-01-17T01:51:29.346Z,43.83
2023-01-17T01:53:59.828Z,44.03
2023-01-17T01:56:29.167Z,43.82
2023-01-17T01:58:57.003Z,44.01
2023-01-17T02:01:24.954Z,44.00
2023-01-17T02:03:52.901Z,43.91
2023-01-17T02:06:31.577Z,44.12
2023-01-17T02:09:01.356Z,44.08
2023-01-17T02:11:30.659Z,44.08
2023-01-17T02:13:58.526Z,44.14
2023-01-17T02:16:34.723Z,43.93
2023-01-17T02:19:11.638Z,43.97
2023-01-17T02:21:40.203Z,43.95
2023-01-17T02:24:34.801Z,44.17
2023-01-17T02:27:08.532Z,44.12
2023-01-17T02:30:06.067Z,44.16
2023-01-17T02:32:45.345Z,44.17
2023-01-17T02:35:17.220Z,44.35
2023-01-17T02:37:49.160Z,44.36
2023-01-17T02:40:19.052Z,44.36
2023-01-17T02:42:48.311Z,44.29
2023-01-17T02:45:17.190Z,44.46
2023-01-17T02:47:46.509Z,44.33
2023-01-17T02:50:16.013Z,44.34
2023-01-17T02:52:51.244Z,44.64
2023-01-17T02:55:28.048Z,44.77
2023-01-17T02:58:06.935Z,44.92
2023-01-17T03:00:40.129Z,44.92
2023-01-17T03:03:12.169Z,45.04
2023-01-17T03:05:41.444Z,45.03
2023-01-17T03:08:09.349Z,45.06
2023-01-17T03:10:37.256Z,45.05
2023-01-17T03:13:05.225Z,45.16
2023-01-17T03:15:33.120Z,45.10
2023-01-17T03:18:02.659Z,45.11
2023-01-17T03:20:32.002Z,45.43
2023-01-17T03:22:59.851Z,45.29
2023-01-17T03:25:27.705Z,45.35
2023-01-17T03:27:55.638Z,45.29
2023-01-17T03:30:23.993Z,45.41
2023-01-17T03:32:51.887Z,45.53
2023-01-17T03:35:19.811Z,45.56
2023-01-17T03:37:49.069Z,45.58
2023-01-17T03:40:17.103Z,45.81
2023-01-17T03:42:45.096Z,45.80
2023-01-17T03:45:13.039Z,45.71
2023-01-17T03:47:40.910Z,45.75
2023-01-17T03:50:09.949Z,46.03
2023-01-17T03:52:37.861Z,45.83
2023-01-17T03:55:08.336Z,46.00
2023-01-17T03:57:36.176Z,45.98
2023-01-17T04:00:04.287Z,45.96
2023-01-17T04:02:32.187Z,45.87
2023-01-17T04:05:00.090Z,45.92
2023-01-17T04:07:28.085Z,45.94
2023-01-17T04:09:55.940Z,46.05
2023-01-17T04:12:25.176Z,46.11
2023-01-17T04:14:53.038Z,46.01
2023-01-17T04:17:20.929Z,46.37
2023-01-17T04:19:48.741Z,46.57
2023-01-17T04:22:16.605Z,46.47
2023-01-17T04:24:44.527Z,46.60
2023-01-17T04:27:16.030Z,46.47
2023-01-17T04:29:46.754Z,46.39
2023-01-17T04:32:14.777Z,46.55
2023-01-17T04:34:42.756Z,46.34
2023-01-17T04:37:10.666Z,46.47
2023-01-17T04:39:38.576Z,46.43
2023-01-17T04:42:06.661Z,46.36
2023-01-17T04:44:34.532Z,46.29
2023-01-17T04:47:03.846Z,46.38
2023-01-17T04:49:31.734Z,46.56
2023-01-17T04:51:59.601Z,46.49
2023-01-17T04:54:27.476Z,46.71
2023-01-17T04:56:55.375Z,46.63
2023-01-17T04:59:23.264Z,46.88
2023-01-17T05:01:51.211Z,46.78
2023-01-17T05:04:20.534Z,46.77
2023-01-17T05:06:48.421Z,46.68
2023-01-17T05:09:16.330Z,46.92
2023-01-17T05:11:44.229Z,46.89
2023-01-17T05:14:12.262Z,47.07
2023-01-17T05:16:40.208Z,47.24
2023-01-17T05:19:08.154Z,47.33
2023-01-17T05:21:37.449Z,47.45
2023-01-17T05:24:05.803Z,47.33
2023-01-17T05:26:33.692Z,47.58
2023-01-17T05:29:01.551Z,47.65
2023-01-17T05:31:29.423Z,47.84
2023-01-17T05:33:57.363Z,47.75
2023-01-17T05:36:25.200Z,47.96
2023-01-17T05:38:54.405Z,47.92
2023-01-17T05:41:22.354Z,47.95
2023-01-17T05:43:50.225Z,48.04
2023-01-17T05:46:18.332Z,48.03
2023-01-17T05:48:46.247Z,48.01
2023-01-17T05:51:14.126Z,48.04
2023-01-17T05:53:41.989Z,48.30
2023-01-17T05:56:11.288Z,48.03
2023-01-17T05:58:40.115Z,48.17
2023-01-17T06:01:08.086Z,47.98
2023-01-17T06:03:36.259Z,47.98
2023-01-17T06:06:04.082Z,48.06
2023-01-17T06:08:34.773Z,47.96
2023-01-17T06:11:02.694Z,48.09
2023-01-17T06:13:32.626Z,47.98
2023-01-17T06:16:03.964Z,48.09
2023-01-17T06:18:32.386Z,47.99
2023-01-17T06:21:00.280Z,47.96
2023-01-17T06:23:28.459Z,47.90
2023-01-17T06:25:56.391Z,48.11
2023-01-17T06:28:26.059Z,47.94
2023-01-17T06:30:55.370Z,47.88
2023-01-17T06:33:23.273Z,48.08
2023-01-17T06:35:51.245Z,48.19
2023-01-17T06:38:19.236Z,48.10
2023-01-17T06:40:47.111Z,48.22
2023-01-17T06:43:15.005Z,48.08
2023-01-17T06:45:42.901Z,48.06
2023-01-17T06:48:12.192Z,48.14
2023-01-17T06:50:40.134Z,48.32
2023-01-17T06:53:08.202Z,48.26
2023-01-17T06:55:36.481Z,48.07
2023-01-17T06:58:04.702Z,48.23
2023-01-17T07:00:35.063Z,48.24
2023-01-17T07:03:03.174Z,48.37
2023-01-17T07:05:32.886Z,48.23
2023-01-17T07:08:00.832Z,48.35
2023-01-17T07:10:28.735Z,48.37
2023-01-17T07:13:00.507Z,48.36
2023-01-17T07:15:28.388Z,48.53
2023-01-17T07:17:56.351Z,48.51
2023-01-17T07:20:24.458Z,48.56
2023-01-17T07:22:53.660Z,48.45
2023-01-17T07:25:21.519Z,48.51
2023-01-17T07:27:49.579Z,48.50
2023-01-17T07:30:18.025Z,48.50
2023-01-17T07:32:45.930Z,48.47
2023-01-17T07:35:13.866Z,48.51
2023-01-17T07:37:41.847Z,48.46
2023-01-17T07:40:12.704Z,48.55
2023-01-17T07:42:40.755Z,48.61
2023-01-17T07:45:10.035Z,48.70
2023-01-17T07:47:38.000Z,48.69
2023-01-17T07:50:06.478Z,48.64
2023-01-17T07:52:34.402Z,48.69
2023-01-17T07:55:02.449Z,48.67
2023-01-17T07:57:32.601Z,48.61
2023-01-17T08:00:00.676Z,48.72
2023-01-17T08:02:28.678Z,48.59
2023-01-17T08:04:56.717Z,48.72
2023-01-17T08:07:24.799Z,48.86
2023-01-17T08:09:54.234Z,48.84
2023-01-17T08:12:22.276Z,48.96
2023-01-17T08:14:51.715Z,49.02
2023-01-17T08:17:20.491Z,48.94
2023-01-17T08:19:50.065Z,49.18
2023-01-17T08:22:17.950Z,48.93
2023-01-17T08:24:45.865Z,49.02
2023-01-17T08:27:13.875Z,49.13
2023-01-17T08:29:46.933Z,49.32
2023-01-17T08:32:16.277Z,49.27
2023-01-17T08:34:44.134Z,49.19
2023-01-17T08:37:12.149Z,49.31
2023-01-17T08:39:40.302Z,49.24
2023-01-17T08:42:08.196Z,49.36
2023-01-17T08:44:36.396Z,49.24
2023-01-17T08:47:04.475Z,49.24
2023-01-17T08:49:33.767Z,49.15
2023-01-17T08:52:01.777Z,49.29
2023-01-17T08:54:29.930Z,49.34
2023-01-17T08:56:57.835Z,49.45
2023-01-17T08:59:27.767Z,49.59
2023-01-17T09:01:58.295Z,49.59
2023-01-17T09:04:26.567Z,49.30
2023-01-17T09:06:55.904Z,49.36
2023-01-17T09:09:23.882Z,49.55
2023-01-17T09:11:51.769Z,49.53
2023-01-17T09:14:19.650Z,49.58
2023-01-17T09:16:48.601Z,49.82
2023-01-17T09:19:16.618Z,49.80
2023-01-17T09:21:44.501Z,50.01
2023-01-17T09:24:13.816Z,49.95
2023-01-17T09:26:41.686Z,49.67
2023-01-17T09:29:09.614Z,49.88
2023-01-17T09:31:37.493Z,49.86
2023-01-17T09:34:05.543Z,49.84
2023-01-17T09:36:34.029Z,49.81
2023-01-17T09:39:02.129Z,49.72
2023-01-17T09:41:32.142Z,49.57
2023-01-17T09:44:05.711Z,49.72
2023-01-17T09:46:34.922Z,49.54
2023-01-17T09:49:05.950Z,49.72
2023-01-17T09:51:34.020Z,49.96
2023-01-17T09:54:02.739Z,49.83
2023-01-17T09:56:33.567Z,49.90
2023-01-17T09:59:18.560Z,49.82
2023-01-17T10:01:50.172Z,49.90
2023-01-17T10:04:25.560Z,49.83
2023-01-17T10:06:59.584Z,50.05
2023-01-17T10:09:45.685Z,49.81
2023-01-17T10:12:21.981Z,49.77
2023-01-17T10:15:03.166Z,49.80
2023-01-17T10:17:37.407Z,49.85
2023-01-17T10:20:13.628Z,49.72
2023-01-17T10:23:00.852Z,49.69
2023-01-17T10:25:49.399Z,49.80
2023-01-17T10:28:20.321Z,49.84
2023-01-17T10:30:49.999Z,49.82
2023-01-17T10:33:20.502Z,49.93
2023-01-17T10:35:55.234Z,49.89
2023-01-17T10:38:24.314Z,49.93
2023-01-17T10:40:54.873Z,50.04
2023-01-17T10:43:27.948Z,49.96
2023-01-17T10:48:38.884Z,50.09
2023-01-17T10:51:50.524Z,50.33
2023-01-17T10:54:25.360Z,50.54
2023-01-17T10:56:53.276Z,51.16
2023-01-17T10:59:28.554Z,51.40
2023-01-17T11:01:56.538Z,51.89
2023-01-17T11:04:25.547Z,53.43
2023-01-17T11:07:13.774Z,54.23
2023-01-17T11:09:42.307Z,54.29
2023-01-17T11:12:18.774Z,54.21
2023-01-17T11:14:54.701Z,53.00
2023-01-17T11:17:22.772Z,51.63
2023-01-17T11:19:51.346Z,49.29
2023-01-17T11:22:19.275Z,48.75
2023-01-17T11:24:50.139Z,50.25
2023-01-17T11:27:25.417Z,51.24
2023-01-17T11:30:09.248Z,51.44
2023-01-17T11:32:37.542Z,50.72
2023-01-17T11:35:16.323Z,50.32
2023-01-17T11:37:51.734Z,50.02
2023-01-17T11:40:25.539Z,49.33
2023-01-17T11:43:22.184Z,46.76
2023-01-17T11:46:06.563Z,45.17
2023-01-17T11:48:36.230Z,44.00
2023-01-17T11:51:04.177Z,43.15
2023-01-17T11:53:33.185Z,42.47
2023-01-17T11:56:05.190Z,41.86
2023-01-17T11:58:33.666Z,41.71
2023-01-17T12:01:07.810Z,42.44
2023-01-17T12:03:56.073Z,44.38
2023-01-17T12:06:27.124Z,45.42
2023-01-17T12:09:03.145Z,44.70
2023-01-17T12:11:35.993Z,43.73
2023-01-17T12:14:07.280Z,44.34
2023-01-17T12:16:53.481Z,43.32
2023-01-17T12:19:34.690Z,42.24
2023-01-17T12:22:13.579Z,42.62
2023-01-17T12:25:08.581Z,42.98
2023-01-17T12:27:42.553Z,41.74
2023-01-17T12:30:30.863Z,41.50
2023-01-17T12:33:15.738Z,41.34
2023-01-17T12:35:44.536Z,40.50
2023-01-17T12:38:27.475Z,40.14
2023-01-17T12:41:02.270Z,40.12
2023-01-17T12:43:32.206Z,39.25
2023-01-17T12:46:00.192Z,37.98
2023-01-17T12:48:30.846Z,37.56
2023-01-17T12:51:01.446Z,35.67
2023-01-17T12:53:32.647Z,35.53
2023-01-17T12:56:02.750Z,35.46
2023-01-17T12:58:34.971Z,36.04
2023-01-17T13:01:05.685Z,35.42
2023-01-17T13:03:42.622Z,34.36
2023-01-17T13:06:11.768Z,34.63
2023-01-17T13:08:41.906Z,34.58
2023-01-17T13:11:12.022Z,34.69
2023-01-17T13:13:41.262Z,35.01
2023-01-17T13:16:13.519Z,34.69
2023-01-17T13:18:45.181Z,34.55
2023-01-17T13:21:27.466Z,34.32
2023-01-17T13:24:15.187Z,35.03
2023-01-17T13:26:51.042Z,35.58
2023-01-17T13:29:24.035Z,35.95
2023-01-17T13:31:54.786Z,35.61
2023-01-17T13:34:32.662Z,35.25
2023-01-17T13:37:09.046Z,35.09
2023-01-17T13:39:47.235Z,35.24
2023-01-17T13:42:19.842Z,35.79
2023-01-17T13:44:47.829Z,34.71
2023-01-17T13:47:41.559Z,34.21
2023-01-17T13:50:42.849Z,33.85
2023-01-17T13:53:56.834Z,33.69
2023-01-17T13:56:36.308Z,33.60
2023-01-17T13:59:19.778Z,33.43
2023-01-17T14:01:53.903Z,33.57
2023-01-17T14:04:22.883Z,32.87
2023-01-17T14:06:59.484Z,32.38
2023-01-17T14:09:29.260Z,31.43
2023-01-17T14:12:01.088Z,31.05
2023-01-17T14:14:46.615Z,31.15
2023-01-17T14:17:29.257Z,31.52
2023-01-17T14:20:00.252Z,32.25
2023-01-17T14:22:28.825Z,32.19
2023-01-17T14:24:59.197Z,31.79
2023-01-17T14:27:28.635Z,31.38
2023-01-17T14:29:58.944Z,31.63
2023-01-17T14:32:28.660Z,33.79
2023-01-17T14:34:57.366Z,35.00
2023-01-17T14:37:39.241Z,35.72
2023-01-17T14:40:18.965Z,35.69
2023-01-17T14:42:48.643Z,35.16
2023-01-17T14:45:27.765Z,35.22
2023-01-17T14:47:56.710Z,34.91
2023-01-17T14:50:25.804Z,35.02
2023-01-17T14:53:09.324Z,35.29
2023-01-17T14:55:37.212Z,35.14
2023-01-17T14:58:06.476Z,34.93
2023-01-17T15:00:40.813Z,34.85
2023-01-17T15:03:11.496Z,34.71
2023-01-17T15:05:40.913Z,34.54
2023-01-17T15:08:12.273Z,33.92
2023-01-17T15:10:47.931Z,33.63
2023-01-17T15:13:26.027Z,33.96
2023-01-17T15:16:04.874Z,34.70
2023-01-17T15:18:40.008Z,35.09
2023-01-17T15:21:11.558Z,35.42
2023-01-17T15:23:40.420Z,35.80
2023-01-17T15:26:09.268Z,36.09
2023-01-17T15:28:38.681Z,36.63
2023-01-17T15:31:17.053Z,37.08
2023-01-17T15:33:46.813Z,37.31
2023-01-17T15:36:26.578Z,37.84
2023-01-17T15:38:58.174Z,38.25
2023-01-17T15:41:26.599Z,38.64
2023-01-17T15:43:58.626Z,39.08
2023-01-17T15:46:32.405Z,39.11
2023-01-17T15:49:17.499Z,39.34
2023-01-17T15:51:51.895Z,39.78
2023-01-17T15:54:37.802Z,40.16
2023-01-17T15:57:11.146Z,40.18
2023-01-17T15:59:45.849Z,40.42
2023-01-17T16:02:26.055Z,41.53
2023-01-17T16:04:54.328Z,42.23
2023-01-17T16:07:23.355Z,42.58
2023-01-17T16:09:51.354Z,43.14
2023-01-17T16:12:19.274Z,43.47
2023-01-17T16:15:02.763Z,43.53
2023-01-17T16:17:34.361Z,43.86
2023-01-17T16:20:02.337Z,43.99
2023-01-17T16:22:30.310Z,44.20
2023-01-17T16:24:58.953Z,44.27
2023-01-17T16:27:26.844Z,44.79
2023-01-17T16:29:56.518Z,44.99
2023-01-17T16:32:25.499Z,45.14
2023-01-17T16:34:53.493Z,45.32
2023-01-17T16:37:22.190Z,45.13
2023-01-17T16:39:50.103Z,45.21
2023-01-17T16:42:18.029Z,45.46
2023-01-17T16:44:45.900Z,45.32
2023-01-17T16:47:15.202Z,45.12
2023-01-17T16:49:43.088Z,45.24
2023-01-17T16:52:10.926Z,45.26
2023-01-17T16:54:38.765Z,45.29
2023-01-17T16:57:06.661Z,45.24
2023-01-17T16:59:49.803Z,45.22
2023-01-17T17:02:19.924Z,45.04
2023-01-17T17:04:49.054Z,45.29
2023-01-17T17:07:16.973Z,45.14
2023-01-17T17:09:44.858Z,45.32
2023-01-17T17:12:12.729Z,45.41
2023-01-17T17:14:41.124Z,45.35
2023-01-17T17:17:09.054Z,45.55
2023-01-17T17:19:38.363Z,45.68
2023-01-17T17:22:07.140Z,45.71
2023-01-17T17:24:35.029Z,45.67
2023-01-17T17:27:03.787Z,45.86
2023-01-17T17:29:31.667Z,46.01
2023-01-17T17:31:59.632Z,46.16
2023-01-17T17:34:28.284Z,46.16
2023-01-17T17:36:57.863Z,46.12
2023-01-17T17:39:25.793Z,46.09
2023-01-17T17:41:53.818Z,46.32
2023-01-17T17:44:21.698Z,46.00
2023-01-17T17:46:51.406Z,46.09
2023-01-17T17:49:20.407Z,46.19
2023-01-17T17:51:48.421Z,46.00
2023-01-17T17:54:18.038Z,46.10
2023-01-17T17:56:47.353Z,46.15
2023-01-17T17:59:18.306Z,46.26
2023-01-17T18:01:46.281Z,46.20
2023-01-17T18:04:15.407Z,45.98
2023-01-17T18:06:43.439Z,46.04
2023-01-17T18:09:12.203Z,46.09
2023-01-17T18:11:42.195Z,46.02
2023-01-17T18:14:11.668Z,46.07
2023-01-17T18:16:41.735Z,46.04
2023-01-17T18:19:10.179Z,45.88
2023-01-17T18:21:38.744Z,45.93
2023-01-17T18:24:08.247Z,45.83
2023-01-17T18:26:37.010Z,45.75
2023-01-17T18:29:06.980Z,45.59
2023-01-17T18:31:35.017Z,45.67
2023-01-17T18:34:05.689Z,45.53
2023-01-17T18:36:34.725Z,45.48
2023-01-17T18:39:02.985Z,45.27
2023-01-17T18:41:31.579Z,45.39
2023-01-17T18:43:59.471Z,45.35
2023-01-17T18:46:28.744Z,45.21
2023-01-17T18:48:56.871Z,45.13
2023-01-17T18:51:24.834Z,45.20
2023-01-17T18:53:54.048Z,45.05
2023-01-17T18:56:22.750Z,45.07
2023-01-17T18:58:51.207Z,44.97
2023-01-17T19:01:20.404Z,44.59
2023-01-17T19:03:50.848Z,44.27
2023-01-17T19:06:19.731Z,44.39
2023-01-17T19:08:48.493Z,44.28
2023-01-17T19:11:16.479Z,44.44
2023-01-17T19:13:44.382Z,44.25
2023-01-17T19:16:15.584Z,44.70
2023-01-17T19:18:43.582Z,44.76
2023-01-17T19:21:13.782Z,44.64
2023-01-17T19:23:41.736Z,44.74
2023-01-17T19:26:09.767Z,44.81
2023-01-17T19:28:38.685Z,44.86
2023-01-17T19:31:07.315Z,44.79
2023-01-17T19:33:35.882Z,44.72
2023-01-17T19:36:05.772Z,44.87
2023-01-17T19:38:35.395Z,44.70
2023-01-17T19:41:09.004Z,44.66
2023-01-17T19:43:37.002Z,44.74
2023-01-17T19:46:05.420Z,44.78
2023-01-17T19:48:33.348Z,45.08
2023-01-17T19:51:05.071Z,45.18
2023-01-17T19:53:35.839Z,45.24
2023-01-17T19:56:06.938Z,45.30
2023-01-17T19:58:35.261Z,45.27
2023-01-17T20:01:07.553Z,45.44
2023-01-17T20:03:35.565Z,45.45
2023-01-17T20:06:03.450Z,45.43
2023-01-17T20:08:31.857Z,45.61
2023-01-17T20:11:04.879Z,45.48
2023-01-17T20:13:32.815Z,45.51
2023-01-17T20:16:03.750Z,45.49
2023-01-17T20:18:32.241Z,45.36
2023-01-17T20:21:03.476Z,45.14
2023-01-17T20:23:35.232Z,45.20
2023-01-17T20:26:04.695Z,45.08
2023-01-17T20:28:32.919Z,45.09
2023-01-17T20:31:05.694Z,45.27
2023-01-17T20:33:33.574Z,45.10
2023-01-17T20:36:10.119Z,44.96
2023-01-17T20:38:44.630Z,44.97
2023-01-17T20:41:15.243Z,44.58
2023-01-17T20:43:43.582Z,44.23
2023-01-17T20:46:11.630Z,44.22
2023-01-17T20:48:44.888Z,44.35
2023-01-17T20:51:12.818Z,44.40
2023-01-17T20:53:41.619Z,44.52
2023-01-17T20:56:09.837Z,44.52
2023-01-17T20:58:39.449Z,44.70
2023-01-17T21:01:07.570Z,44.81
2023-01-17T21:03:36.044Z,45.04
2023-01-17T21:06:05.032Z,45.16
2023-01-17T21:08:33.336Z,45.36
2023-01-17T21:11:01.298Z,45.26
2023-01-17T21:13:29.217Z,45.38
2023-01-17T21:15:58.599Z,45.37
2023-01-17T21:18:26.631Z,45.28
2023-01-17T21:20:54.621Z,45.14
2023-01-17T21:23:29.270Z,45.21
2023-01-17T21:25:57.947Z,45.20
2023-01-17T21:28:26.939Z,44.92
2023-01-17T21:30:54.929Z,44.83
2023-01-17T21:33:24.913Z,44.90
2023-01-17T21:35:54.314Z,44.86
2023-01-17T21:38:22.225Z,44.50
2023-01-17T21:40:50.443Z,44.42
2023-01-17T21:43:18.315Z,44.50
2023-01-17T21:45:46.303Z,44.58
2023-01-17T21:48:14.680Z,44.63
2023-01-17T21:50:45.192Z,44.72
2023-01-17T21:53:14.096Z,44.66
2023-01-17T21:55:59.404Z,44.71
2023-01-17T21:58:45.609Z,44.65
2023-01-17T22:01:21.606Z,44.72
2023-01-17T22:03:50.544Z,44.58
2023-01-17T22:06:19.999Z,44.59
2023-01-17T22:08:47.965Z,44.63
2023-01-17T22:11:16.843Z,44.84
2023-01-17T22:13:45.129Z,44.98
2023-01-17T22:16:13.693Z,44.94
2023-01-17T22:18:42.379Z,45.05
2023-01-17T22:21:12.024Z,45.07
2023-01-17T22:23:41.798Z,45.13
2023-01-17T22:26:10.517Z,45.38
2023-01-17T22:28:38.536Z,45.44
2023-01-17T22:31:10.763Z,45.40
2023-01-17T22:33:39.025Z,45.47
2023-01-17T22:36:07.615Z,45.39
2023-01-17T22:38:35.613Z,45.57
2023-01-17T22:41:08.018Z,45.39
2023-01-17T22:43:37.305Z,45.43
2023-01-17T22:46:05.795Z,45.40
2023-01-17T22:48:33.980Z,45.25
2023-01-17T22:51:02.464Z,45.32
2023-01-17T22:53:30.419Z,45.40
2023-01-17T22:56:02.871Z,45.49
2023-01-17T22:58:32.177Z,45.50
2023-01-17T23:01:05.459Z,45.53
2023-01-17T23:03:33.477Z,45.49
2023-01-17T23:06:11.575Z,45.53
2023-01-17T23:08:40.283Z,45.65
2023-01-17T23:11:32.999Z,45.55
2023-01-17T23:14:02.262Z,45.82
2023-01-17T23:16:47.577Z,45.76
2023-01-17T23:19:24.503Z,45.88
2023-01-17T23:22:10.091Z,45.92
2023-01-17T23:24:39.568Z,45.85
2023-01-17T23:27:24.653Z,45.73
2023-01-17T23:29:53.923Z,45.87
2023-01-17T23:32:21.848Z,45.73
2023-01-17T23:34:49.905Z,45.52
2023-01-17T23:37:17.803Z,45.59
2023-01-17T23:39:45.689Z,45.61
2023-01-17T23:42:31.130Z,45.68
2023-01-17T23:45:00.418Z,45.75
2023-01-17T23:47:28.312Z,45.86
2023-01-17T23:49:56.210Z,45.92
2023-01-17T23:52:24.150Z,45.81
2023-01-17T23:54:52.146Z,45.93
2023-01-17T23:57:20.036Z,46.04
2023-01-17T23:59:47.964Z,45.66
